Time,TemperatureF,DewpointF,PressureIn,WindDirection,WindDirectionDegrees,WindSpeedMPH,WindSpeedGustMPH,Humidity,HourlyPrecipIn,Conditions,Clouds,dailyrainin,SoftwareType,DateUTC
2013-04-12 00:00:00,19.0,-99.9,-100.00,WNW,302,10.0,16.0,-999,-99.99,,,-99.99,,2013-04-12 06:00:00,
2013-04-12 00:02:00,19.0,-99.9,-100.00,NNW,329,12.0,21.0,-999,-99.99,,,-99.99,,2013-04-12 06:02:00,
2013-04-12 00:12:00,19.0,-99.9,-100.00,NNW,329,12.0,21.0,-999,-99.99,,,-99.99,,2013-04-12 06:12:00,
2013-04-12 00:22:00,19.0,-99.9,-100.00,NW,307,13.0,24.0,-999,-99.99,,,-99.99,,2013-04-12 06:22:00,
2013-04-12 00:32:00,19.0,-99.9,-100.00,WNW,302,10.0,16.0,-999,-99.99,,,-99.99,,2013-04-12 06:32:00,
2013-04-12 00:42:00,19.0,-99.9,-100.00,WNW,302,10.0,16.0,-999,-99.99,,,-99.99,,2013-04-12 06:42:00,
2013-04-12 00:52:00,19.0,-99.9,-100.00,WNW,302,10.0,16.0,-999,-99.99,,,-99.99,,2013-04-12 06:52:00,
2013-04-12 01:52:00,17.0,-99.9,-100.00,NW,320,8.0,14.0,-999,-99.99,,,-99.99,,2013-04-12 07:52:00,
2013-04-12 02:03:00,17.0,-99.9,-100.00,WNW,290,7.0,9.0,-999,-99.99,,,-99.99,,2013-04-12 08:03:00,
2013-04-12 02:12:00,17.0,-99.9,-100.00,WNW,290,7.0,9.0,-999,-99.99,,,-99.99,,2013-04-12 08:12:00,
2013-04-12 02:22:00,16.0,-99.9,-100.00,NNW,330,9.0,12.0,-999,-99.99,,,-99.99,,2013-04-12 08:22:00,
2013-04-12 02:32:00,16.0,-99.9,-100.00,NNW,329,10.0,14.0,-999,-99.99,,,-99.99,,2013-04-12 08:32:00,
2013-04-12 02:43:00,16.0,-99.9,-100.00,NNW,329,10.0,14.0,-999,-99.99,,,-99.99,,2013-04-12 08:43:00,
2013-04-12 02:53:00,16.0,-99.9,-100.00,NW,326,11.0,16.0,-999,-99.99,,,-99.99,,2013-04-12 08:53:00,
2013-04-12 03:02:00,16.0,-99.9,-100.00,NNW,329,12.0,22.0,-999,-99.99,,,-99.99,,2013-04-12 09:02:00,
2013-04-12 03:12:00,16.0,-99.9,-100.00,NNW,329,12.0,22.0,-999,-99.99,,,-99.99,,2013-04-12 09:12:00,
2013-04-12 03:22:00,17.0,-99.9,-100.00,NNW,341,15.0,22.0,-999,-99.99,,,-99.99,,2013-04-12 09:22:00,
2013-04-12 03:33:00,16.0,-99.9,-100.00,NNW,341,14.0,22.0,-999,-99.99,,,-99.99,,2013-04-12 09:33:00,
2013-04-12 03:44:00,16.0,-99.9,-100.00,NNW,341,14.0,22.0,-999,-99.99,,,-99.99,,2013-04-12 09:44:00,
2013-04-12 03:53:00,16.0,-99.9,-100.00,NNW,346,16.0,22.0,-999,-99.99,,,-99.99,,2013-04-12 09:53:00,
2013-04-12 04:03:00,16.0,-99.9,-100.00,NNW,337,17.0,24.0,-999,-99.99,,,-99.99,,2013-04-12 10:03:00,
2013-04-12 04:13:00,16.0,-99.9,-100.00,NNW,337,17.0,24.0,-999,-99.99,,,-99.99,,2013-04-12 10:13:00,
2013-04-12 04:23:00,16.0,-99.9,-100.00,NNW,343,20.0,29.0,-999,-99.99,,,-99.99,,2013-04-12 10:23:00,
2013-04-12 04:34:00,15.0,-99.9,-100.00,NNW,345,21.0,31.0,-999,-99.99,,,-99.99,,2013-04-12 10:34:00,
2013-04-12 04:43:00,15.0,-99.9,-100.00,NNW,345,21.0,31.0,-999,-99.99,,,-99.99,,2013-04-12 10:43:00,
2013-04-12 04:53:00,15.0,-99.9,-100.00,NNW,345,20.0,29.0,-999,-99.99,,,-99.99,,2013-04-12 10:53:00,
2013-04-12 05:03:00,15.0,-99.9,-100.00,NNW,348,18.0,28.0,-999,-99.99,,,-99.99,,2013-04-12 11:03:00,
2013-04-12 05:13:00,15.0,-99.9,-100.00,NNW,348,18.0,28.0,-999,-99.99,,,-99.99,,2013-04-12 11:13:00,
2013-04-12 05:22:00,15.0,-99.9,-100.00,North,356,20.0,26.0,-999,-99.99,,,-99.99,,2013-04-12 11:22:00,
2013-04-12 05:33:00,15.0,-99.9,-100.00,North,356,17.0,22.0,-999,-99.99,,,-99.99,,2013-04-12 11:33:00,
2013-04-12 05:43:00,15.0,-99.9,-100.00,North,356,17.0,22.0,-999,-99.99,,,-99.99,,2013-04-12 11:43:00,
2013-04-12 05:53:00,14.0,-99.9,-100.00,NNW,342,16.0,22.0,-999,-99.99,,,-99.99,,2013-04-12 11:53:00,
2013-04-12 06:03:00,14.0,-99.9,-100.00,NNW,343,15.0,19.0,-999,-99.99,,,-99.99,,2013-04-12 12:03:00,
2013-04-12 06:13:00,14.0,-99.9,-100.00,NNW,343,15.0,19.0,-999,-99.99,,,-99.99,,2013-04-12 12:13:00,
2013-04-12 06:22:00,13.0,-99.9,-100.00,NNW,332,14.0,18.0,-999,-99.99,,,-99.99,,2013-04-12 12:22:00,
2013-04-12 06:33:00,13.0,-99.9,-100.00,NNW,330,13.0,19.0,-999,-99.99,,,-99.99,,2013-04-12 12:33:00,
2013-04-12 06:43:00,13.0,-99.9,-100.00,NNW,330,13.0,19.0,-999,-99.99,,,-99.99,,2013-04-12 12:43:00,
2013-04-12 06:54:00,13.0,-99.9,-100.00,NW,323,13.0,21.0,-999,-99.99,,,-99.99,,2013-04-12 12:54:00,
2013-04-12 07:03:00,12.0,-99.9,-100.00,NNW,333,12.0,18.0,-999,-99.99,,,-99.99,,2013-04-12 13:03:00,
2013-04-12 07:13:00,12.0,-99.9,-100.00,NNW,333,12.0,18.0,-999,-99.99,,,-99.99,,2013-04-12 13:13:00,
2013-04-12 07:22:00,12.0,-99.9,-100.00,NNW,338,13.0,19.0,-999,-99.99,,,-99.99,,2013-04-12 13:22:00,
2013-04-12 07:33:00,12.0,-99.9,-100.00,NNW,328,14.0,21.0,-999,-99.99,,,-99.99,,2013-04-12 13:33:00,
2013-04-12 07:43:00,12.0,-99.9,-100.00,NNW,328,14.0,21.0,-999,-99.99,,,-99.99,,2013-04-12 13:43:00,
2013-04-12 07:53:00,12.0,-99.9,-100.00,NNW,328,16.0,22.0,-999,-99.99,,,-99.99,,2013-04-12 13:53:00,
2013-04-12 08:04:00,13.0,-99.9,-100.00,NNW,328,15.0,19.0,-999,-99.99,,,-99.99,,2013-04-12 14:04:00,
2013-04-12 08:13:00,13.0,-99.9,-100.00,NNW,328,15.0,19.0,-999,-99.99,,,-99.99,,2013-04-12 14:13:00,
2013-04-12 08:23:00,13.0,-99.9,-100.00,NW,324,11.0,16.0,-999,-99.99,,,-99.99,,2013-04-12 14:23:00,
2013-04-12 08:33:00,13.0,-99.9,-100.00,NW,311,13.0,19.0,-999,-99.99,,,-99.99,,2013-04-12 14:33:00,
2013-04-12 08:43:00,13.0,-99.9,-100.00,NW,311,13.0,19.0,-999,-99.99,,,-99.99,,2013-04-12 14:43:00,
2013-04-12 08:54:00,13.0,-99.9,-100.00,NW,323,12.0,18.0,-999,-99.99,,,-99.99,,2013-04-12 14:54:00,
2013-04-12 09:03:00,14.0,-99.9,-100.00,NNW,328,12.0,18.0,-999,-99.99,,,-99.99,,2013-04-12 15:03:00,
2013-04-12 09:12:00,14.0,-99.9,-100.00,NNW,328,12.0,18.0,-999,-99.99,,,-99.99,,2013-04-12 15:12:00,
2013-04-12 09:22:00,13.0,-99.9,-100.00,NNW,328,10.0,15.0,-999,-99.99,,,-99.99,,2013-04-12 15:22:00,
2013-04-12 09:33:00,13.0,-99.9,-100.00,NW,323,10.0,15.0,-999,-99.99,,,-99.99,,2013-04-12 15:33:00,
2013-04-12 09:43:00,13.0,-99.9,-100.00,NW,323,10.0,15.0,-999,-99.99,,,-99.99,,2013-04-12 15:43:00,
2013-04-12 09:53:00,13.0,-99.9,-100.00,NNW,330,11.0,25.0,-999,-99.99,,,-99.99,,2013-04-12 15:53:00,
2013-04-12 10:04:00,13.0,-99.9,-100.00,NW,324,11.0,16.0,-999,-99.99,,,-99.99,,2013-04-12 16:04:00,
2013-04-12 10:14:00,13.0,-99.9,-100.00,NW,324,11.0,16.0,-999,-99.99,,,-99.99,,2013-04-12 16:14:00,
2013-04-12 10:23:00,14.0,-99.9,-100.00,NW,323,12.0,24.0,-999,-99.99,,,-99.99,,2013-04-12 16:23:00,
2013-04-12 10:34:00,14.0,-99.9,-100.00,NNW,333,13.0,19.0,-999,-99.99,,,-99.99,,2013-04-12 16:34:00,
2013-04-12 10:43:00,14.0,-99.9,-100.00,NNW,333,13.0,19.0,-999,-99.99,,,-99.99,,2013-04-12 16:43:00,
2013-04-12 10:53:00,15.0,-99.9,-100.00,NW,321,11.0,18.0,-999,-99.99,,,-99.99,,2013-04-12 16:53:00,
2013-04-12 11:04:00,16.0,-99.9,-100.00,NW,313,8.0,15.0,-999,-99.99,,,-99.99,,2013-04-12 17:04:00,
2013-04-12 11:12:00,16.0,-99.9,-100.00,NW,313,8.0,15.0,-999,-99.99,,,-99.99,,2013-04-12 17:12:00,
2013-04-12 11:23:00,17.0,-99.9,-100.00,NW,319,9.0,15.0,-999,-99.99,,,-99.99,,2013-04-12 17:23:00,
2013-04-12 11:34:00,18.0,-99.9,-100.00,NW,306,8.0,14.0,-999,-99.99,,,-99.99,,2013-04-12 17:34:00,
2013-04-12 11:47:00,18.0,-99.9,-100.00,NW,306,8.0,14.0,-999,-99.99,,,-99.99,,2013-04-12 17:47:00,
2013-04-12 12:09:00,17.0,-99.9,-100.00,NW,314,9.0,21.0,-999,-99.99,,,-99.99,,2013-04-12 18:09:00,
2013-04-12 12:25:00,21.0,-99.9,-100.00,WSW,250,7.0,14.0,-999,-99.99,,,-99.99,,2013-04-12 18:25:00,
2013-04-12 13:27:00,17.0,-99.9,-100.00,NW,305,9.0,15.0,-999,-99.99,,,-99.99,,2013-04-12 19:27:00,
2013-04-12 13:33:00,18.0,-99.9,-100.00,WNW,283,10.0,16.0,-999,-99.99,,,-99.99,,2013-04-12 19:33:00,
2013-04-12 13:43:00,18.0,-99.9,-100.00,WNW,283,10.0,16.0,-999,-99.99,,,-99.99,,2013-04-12 19:43:00,
2013-04-12 13:53:00,20.0,-99.9,-100.00,West,269,13.0,19.0,-999,-99.99,,,-99.99,,2013-04-12 19:53:00,
2013-04-12 14:02:00,19.0,-99.9,-100.00,West,281,16.0,22.0,-999,-99.99,,,-99.99,,2013-04-12 20:02:00,
2013-04-12 14:13:00,19.0,-99.9,-100.00,West,281,16.0,22.0,-999,-99.99,,,-99.99,,2013-04-12 20:13:00,
2013-04-12 14:22:00,20.0,-99.9,-100.00,WNW,289,11.0,16.0,-999,-99.99,,,-99.99,,2013-04-12 20:22:00,
2013-04-12 14:33:00,20.0,-99.9,-100.00,WNW,290,15.0,21.0,-999,-99.99,,,-99.99,,2013-04-12 20:33:00,
2013-04-12 14:53:00,21.0,-99.9,-100.00,West,277,13.0,21.0,-999,-99.99,,,-99.99,,2013-04-12 20:53:00,
2013-04-12 15:03:00,20.0,-99.9,-100.00,West,279,17.0,24.0,-999,-99.99,,,-99.99,,2013-04-12 21:03:00,
2013-04-12 15:22:00,22.0,-99.9,-100.00,West,267,14.0,21.0,-999,-99.99,,,-99.99,,2013-04-12 21:22:00,
2013-04-12 15:33:00,21.0,-99.9,-100.00,WNW,290,13.0,22.0,-999,-99.99,,,-99.99,,2013-04-12 21:33:00,
2013-04-12 15:43:00,21.0,-99.9,-100.00,WNW,290,13.0,22.0,-999,-99.99,,,-99.99,,2013-04-12 21:43:00,
2013-04-12 15:53:00,21.0,-99.9,-100.00,WNW,285,17.0,22.0,-999,-99.99,,,-99.99,,2013-04-12 21:53:00,
2013-04-12 16:03:00,22.0,-99.9,-100.00,WNW,295,14.0,22.0,-999,-99.99,,,-99.99,,2013-04-12 22:03:00,
2013-04-12 16:13:00,22.0,-99.9,-100.00,WNW,295,14.0,22.0,-999,-99.99,,,-99.99,,2013-04-12 22:13:00,
2013-04-12 16:23:00,22.0,-99.9,-100.00,West,273,13.0,18.0,-999,-99.99,,,-99.99,,2013-04-12 22:23:00,
2013-04-12 16:33:00,22.0,-99.9,-100.00,West,278,14.0,21.0,-999,-99.99,,,-99.99,,2013-04-12 22:33:00,
2013-04-12 16:43:00,22.0,-99.9,-100.00,West,278,14.0,21.0,-999,-99.99,,,-99.99,,2013-04-12 22:43:00,
2013-04-12 16:53:00,23.0,-99.9,-100.00,WNW,296,17.0,24.0,-999,-99.99,,,-99.99,,2013-04-12 22:53:00,
2013-04-12 17:04:00,23.0,-99.9,-100.00,West,280,13.0,21.0,-999,-99.99,,,-99.99,,2013-04-12 23:04:00,
2013-04-12 17:12:00,23.0,-99.9,-100.00,West,280,13.0,21.0,-999,-99.99,,,-99.99,,2013-04-12 23:12:00,
2013-04-12 17:22:00,24.0,-99.9,-100.00,WNW,283,13.0,25.0,-999,-99.99,,,-99.99,,2013-04-12 23:22:00,
2013-04-12 17:32:00,26.0,-99.9,-100.00,West,270,12.0,18.0,-999,-99.99,,,-99.99,,2013-04-12 23:32:00,
2013-04-12 17:43:00,26.0,-99.9,-100.00,West,270,12.0,18.0,-999,-99.99,,,-99.99,,2013-04-12 23:43:00,
2013-04-12 17:52:00,25.0,-99.9,-100.00,West,273,13.0,21.0,-999,-99.99,,,-99.99,,2013-04-12 23:52:00,
2013-04-12 18:02:00,25.0,-99.9,-100.00,West,273,13.0,21.0,-999,-99.99,,,-99.99,,2013-04-13 00:02:00,
2013-04-12 18:12:00,25.0,-99.9,-100.00,West,273,13.0,21.0,-999,-99.99,,,-99.99,,2013-04-13 00:12:00,
2013-04-12 18:22:00,25.0,-99.9,-100.00,West,273,12.0,18.0,-999,-99.99,,,-99.99,,2013-04-13 00:22:00,
2013-04-12 18:32:00,25.0,-99.9,-100.00,West,273,12.0,18.0,-999,-99.99,,,-99.99,,2013-04-13 00:32:00,
2013-04-12 18:42:00,25.0,-99.9,-100.00,West,273,12.0,18.0,-999,-99.99,,,-99.99,,2013-04-13 00:42:00,
2013-04-12 18:52:00,23.0,-99.9,-100.00,WNW,302,10.0,16.0,-999,-99.99,,,-99.99,,2013-04-13 00:52:00,
2013-04-12 19:02:00,24.0,-99.9,-100.00,West,269,13.0,16.0,-999,-99.99,,,-99.99,,2013-04-13 01:02:00,
2013-04-12 19:13:00,24.0,-99.9,-100.00,West,269,13.0,16.0,-999,-99.99,,,-99.99,,2013-04-13 01:13:00,
2013-04-12 19:23:00,23.0,-99.9,-100.00,WNW,284,12.0,19.0,-999,-99.99,,,-99.99,,2013-04-13 01:23:00,
2013-04-12 19:33:00,23.0,-99.9,-100.00,WNW,287,12.0,18.0,-999,-99.99,,,-99.99,,2013-04-13 01:33:00,
2013-04-12 19:43:00,23.0,-99.9,-100.00,WNW,287,12.0,18.0,-999,-99.99,,,-99.99,,2013-04-13 01:43:00,
2013-04-12 19:52:00,22.0,-99.9,-100.00,WNW,289,11.0,19.0,-999,-99.99,,,-99.99,,2013-04-13 01:52:00,
2013-04-12 20:02:00,22.0,-99.9,-100.00,WNW,287,14.0,24.0,-999,-99.99,,,-99.99,,2013-04-13 02:02:00,
2013-04-12 20:12:00,22.0,-99.9,-100.00,WNW,287,14.0,24.0,-999,-99.99,,,-99.99,,2013-04-13 02:12:00,
2013-04-12 20:23:00,22.0,-99.9,-100.00,WNW,288,13.0,24.0,-999,-99.99,,,-99.99,,2013-04-13 02:23:00,
2013-04-12 20:33:00,22.0,-99.9,-100.00,WNW,291,14.0,19.0,-999,-99.99,,,-99.99,,2013-04-13 02:33:00,
2013-04-12 20:43:00,22.0,-99.9,-100.00,WNW,291,14.0,19.0,-999,-99.99,,,-99.99,,2013-04-13 02:43:00,
2013-04-12 20:53:00,22.0,-99.9,-100.00,WNW,287,13.0,21.0,-999,-99.99,,,-99.99,,2013-04-13 02:53:00,
2013-04-12 21:03:00,22.0,-99.9,-100.00,WNW,290,16.0,22.0,-999,-99.99,,,-99.99,,2013-04-13 03:03:00,
2013-04-12 21:12:00,22.0,-99.9,-100.00,WNW,290,16.0,22.0,-999,-99.99,,,-99.99,,2013-04-13 03:12:00,
2013-04-12 21:23:00,22.0,-99.9,-100.00,WNW,290,17.0,25.0,-999,-99.99,,,-99.99,,2013-04-13 03:23:00,
2013-04-12 21:33:00,22.0,-99.9,-100.00,WNW,287,17.0,26.0,-999,-99.99,,,-99.99,,2013-04-13 03:33:00,
2013-04-12 21:43:00,22.0,-99.9,-100.00,WNW,287,17.0,26.0,-999,-99.99,,,-99.99,,2013-04-13 03:43:00,
2013-04-12 21:54:00,22.0,-99.9,-100.00,WNW,287,18.0,26.0,-999,-99.99,,,-99.99,,2013-04-13 03:54:00,
2013-04-12 22:03:00,22.0,-99.9,-100.00,West,279,20.0,31.0,-999,-99.99,,,-99.99,,2013-04-13 04:03:00,
2013-04-12 22:12:00,22.0,-99.9,-100.00,West,279,20.0,31.0,-999,-99.99,,,-99.99,,2013-04-13 04:12:00,
2013-04-12 22:23:00,22.0,-99.9,-100.00,West,275,21.0,33.0,-999,-99.99,,,-99.99,,2013-04-13 04:23:00,
2013-04-12 22:33:00,23.0,-99.9,-100.00,West,276,23.0,32.0,-999,-99.99,,,-99.99,,2013-04-13 04:33:00,
2013-04-12 22:43:00,23.0,-99.9,-100.00,West,276,23.0,32.0,-999,-99.99,,,-99.99,,2013-04-13 04:43:00,
2013-04-12 22:53:00,23.0,-99.9,-100.00,WNW,282,21.0,29.0,-999,-99.99,,,-99.99,,2013-04-13 04:53:00,
2013-04-12 23:03:00,22.0,-99.9,-100.00,West,274,19.0,29.0,-999,-99.99,,,-99.99,,2013-04-13 05:03:00,
2013-04-12 23:12:00,22.0,-99.9,-100.00,West,274,19.0,29.0,-999,-99.99,,,-99.99,,2013-04-13 05:12:00,
2013-04-12 23:23:00,22.0,-99.9,-100.00,West,269,20.0,26.0,-999,-99.99,,,-99.99,,2013-04-13 05:23:00,
2013-04-12 23:32:00,22.0,-99.9,-100.00,West,279,17.0,28.0,-999,-99.99,,,-99.99,,2013-04-13 05:32:00,
2013-04-12 23:43:00,22.0,-99.9,-100.00,West,279,17.0,28.0,-999,-99.99,,,-99.99,,2013-04-13 05:43:00,
2013-04-12 23:53:00,22.0,-99.9,-100.00,West,277,17.0,25.0,-999,-99.99,,,-99.99,,2013-04-13 05:53:00,